Time,TemperatureF,DewpointF,PressureIn,WindDirection,WindDirectionDegrees,WindSpeedMPH,WindSpeedGustMPH,Humidity,HourlyPrecipIn,Conditions,Clouds,dailyrainin,SolarRadiationWatts/m^2,SoftwareType,DateUTC
2013-05-24 00:04:00,42.8,39.5,29.89,WNW,292,2.3,2.3,88,0.01,RA,,0.00,0.0,WeatherDisplay:10.37,2013-05-23 22:04:00,
2013-05-24 00:09:00,42.7,39.4,29.89,WNW,292,2.3,0.0,88,0.01,RA,,0.00,0.0,WeatherDisplay:10.37,2013-05-23 22:09:00,
2013-05-24 00:14:00,42.6,39.6,29.89,WNW,292,0.0,0.0,89,0.01,OVC,,0.00,0.0,WeatherDisplay:10.37,2013-05-23 22:14:00,
2013-05-24 00:19:00,42.6,39.6,29.89,WNW,292,0.0,0.1,89,0.01,OVC,,0.00,0.0,WeatherDisplay:10.37,2013-05-23 22:19:00,
2013-05-24 00:24:00,42.5,39.5,29.89,WNW,292,0.0,0.0,89,0.01,OVC,,0.00,0.0,WeatherDisplay:10.37,2013-05-23 22:24:00,
2013-05-24 00:29:00,42.2,39.5,29.89,WNW,292,0.0,0.0,90,0.01,OVC,,0.00,0.0,WeatherDisplay:10.37,2013-05-23 22:29:00,
2013-05-24 00:34:00,42.2,39.5,29.89,WNW,292,0.0,0.0,90,0.01,OVC,,0.00,0.0,WeatherDisplay:10.37,2013-05-23 22:34:00,
2013-05-24 00:39:00,41.8,39.1,29.90,WNW,292,0.0,0.0,90,0.00,OVC,,0.00,0.0,WeatherDisplay:10.37,2013-05-23 22:39:00,
2013-05-24 00:44:00,41.7,39.3,29.90,WNW,292,0.0,0.0,91,0.00,OVC,,0.00,0.0,WeatherDisplay:10.37,2013-05-23 22:44:00,
2013-05-24 00:49:00,41.5,39.1,29.90,WNW,292,0.0,0.0,91,0.00,OVC,,0.00,0.0,WeatherDisplay:10.37,2013-05-23 22:49:00,
2013-05-24 00:54:00,41.6,39.2,29.90,WNW,292,0.0,0.0,91,0.00,OVC,,0.00,0.0,WeatherDisplay:10.37,2013-05-23 22:54:00,
2013-05-24 00:59:00,41.5,39.1,29.90,WNW,292,0.0,0.0,91,0.00,OVC,,0.00,0.0,WeatherDisplay:10.37,2013-05-23 22:59:00,
2013-05-24 01:05:00,41.5,39.3,29.90,WNW,292,0.0,0.0,92,0.00,OVC,,0.00,0.0,WeatherDisplay:10.37,2013-05-23 23:05:00,
2013-05-24 01:10:00,41.5,39.3,29.90,WNW,292,0.0,0.0,92,0.00,OVC,,0.00,0.0,WeatherDisplay:10.37,2013-05-23 23:10:00,
2013-05-24 01:15:00,41.6,39.4,29.90,WNW,292,0.0,0.0,92,0.00,OVC,,0.00,0.0,WeatherDisplay:10.37,2013-05-23 23:15:00,
2013-05-24 01:20:00,41.7,39.5,29.90,WNW,292,0.0,0.0,92,0.00,OVC,,0.00,0.0,WeatherDisplay:10.37,2013-05-23 23:20:00,
2013-05-24 01:25:00,41.8,39.6,29.90,WNW,292,1.2,0.0,92,0.00,OVC,,0.00,0.0,WeatherDisplay:10.37,2013-05-23 23:25:00,
2013-05-24 01:30:00,41.8,39.6,29.89,WNW,292,0.0,0.0,92,0.00,OVC,,0.00,0.0,WeatherDisplay:10.37,2013-05-23 23:30:00,
2013-05-24 01:35:00,42.0,39.8,29.89,WNW,292,0.0,0.0,92,0.00,OVC,,0.00,0.0,WeatherDisplay:10.37,2013-05-23 23:35:00,
2013-05-24 01:40:00,42.0,39.8,29.89,WNW,292,0.0,0.0,92,0.00,OVC,,0.00,0.0,WeatherDisplay:10.37,2013-05-23 23:40:00,
2013-05-24 01:45:00,42.0,39.8,29.89,WNW,292,1.2,0.0,92,0.00,OVC,,0.00,0.0,WeatherDisplay:10.37,2013-05-23 23:45:00,
2013-05-24 01:50:00,42.1,39.9,29.89,WNW,292,0.0,0.0,92,0.00,OVC,,0.00,0.0,WeatherDisplay:10.37,2013-05-23 23:50:00,
2013-05-24 01:55:00,41.8,39.6,29.89,WNW,292,0.0,0.0,92,0.00,OVC,,0.00,0.0,WeatherDisplay:10.37,2013-05-23 23:55:00,
2013-05-24 02:00:00,41.8,39.6,29.89,WNW,292,1.0,1.0,92,0.00,OVC,,0.00,0.0,WeatherDisplay:10.37,2013-05-24 00:00:00,
2013-05-24 02:05:00,42.0,39.8,29.89,WNW,292,0.0,0.0,92,0.00,OVC,,0.00,0.0,WeatherDisplay:10.37,2013-05-24 00:05:00,
2013-05-24 02:10:00,41.9,39.7,29.88,WNW,292,0.0,0.0,92,0.00,OVC,,0.00,0.0,WeatherDisplay:10.37,2013-05-24 00:10:00,
2013-05-24 02:15:00,41.9,39.7,29.88,WNW,292,0.0,0.2,92,0.00,OVC,,0.00,0.0,WeatherDisplay:10.37,2013-05-24 00:15:00,
2013-05-24 02:20:00,42.1,39.9,29.88,WNW,292,0.0,0.0,92,0.00,OVC,,0.00,0.0,WeatherDisplay:10.37,2013-05-24 00:20:00,
2013-05-24 02:25:00,42.2,40.0,29.88,WNW,292,0.0,0.0,92,0.00,OVC,,0.00,0.0,WeatherDisplay:10.37,2013-05-24 00:25:00,
2013-05-24 02:30:00,42.1,39.9,29.88,WNW,292,0.0,0.0,92,0.00,OVC,,0.00,0.0,WeatherDisplay:10.37,2013-05-24 00:30:00,
2013-05-24 02:35:00,41.9,39.7,29.88,WNW,292,0.0,0.0,92,0.00,OVC,,0.00,0.0,WeatherDisplay:10.37,2013-05-24 00:35:00,
2013-05-24 02:40:00,41.8,39.6,29.88,WNW,292,0.0,0.0,92,0.00,OVC,,0.00,0.0,WeatherDisplay:10.37,2013-05-24 00:40:00,
2013-05-24 02:45:00,41.9,39.7,29.88,WNW,292,1.2,1.2,92,0.00,OVC,,0.00,0.0,WeatherDisplay:10.37,2013-05-24 00:45:00,
2013-05-24 02:50:00,41.8,39.6,29.88,WNW,292,0.0,0.0,92,0.00,OVC,,0.00,0.0,WeatherDisplay:10.37,2013-05-24 00:50:00,
2013-05-24 02:55:00,41.8,39.6,29.88,WNW,292,0.0,0.0,92,0.00,OVC,,0.00,0.0,WeatherDisplay:10.37,2013-05-24 00:55:00,
2013-05-24 03:00:00,41.8,39.6,29.87,WNW,292,0.0,0.0,92,0.00,OVC,,0.00,0.0,WeatherDisplay:10.37,2013-05-24 01:00:00,
2013-05-24 03:05:00,41.7,39.5,29.87,WNW,292,0.0,0.0,92,0.00,OVC,,0.00,0.0,WeatherDisplay:10.37,2013-05-24 01:05:00,
2013-05-24 03:10:00,41.6,39.4,29.88,WNW,292,0.0,0.0,92,0.00,OVC,,0.00,0.0,WeatherDisplay:10.37,2013-05-24 01:10:00,
2013-05-24 03:15:00,41.4,39.3,29.88,WNW,292,0.0,0.0,92,0.00,OVC,,0.00,0.0,WeatherDisplay:10.37,2013-05-24 01:15:00,
2013-05-24 03:20:00,41.5,39.3,29.88,WNW,292,0.0,0.0,92,0.00,OVC,,0.00,0.0,WeatherDisplay:10.37,2013-05-24 01:20:00,
2013-05-24 03:25:00,41.4,39.3,29.87,WNW,292,0.0,0.0,92,0.00,OVC,,0.00,0.0,WeatherDisplay:10.37,2013-05-24 01:25:00,
2013-05-24 03:30:00,41.3,39.2,29.87,WNW,292,0.0,0.0,92,0.00,OVC,,0.00,0.0,WeatherDisplay:10.37,2013-05-24 01:30:00,
2013-05-24 03:35:00,41.3,39.2,29.87,WNW,292,0.0,0.0,92,0.00,OVC,,0.00,0.0,WeatherDisplay:10.37,2013-05-24 01:35:00,
2013-05-24 03:40:00,41.1,39.0,29.87,WNW,292,1.0,1.0,92,0.00,OVC,,0.00,0.0,WeatherDisplay:10.37,2013-05-24 01:40:00,
2013-05-24 03:45:00,41.0,38.9,29.87,WNW,292,2.3,2.3,92,0.00,OVC,,0.00,0.0,WeatherDisplay:10.37,2013-05-24 01:45:00,
2013-05-24 03:50:00,40.8,38.7,29.87,WNW,292,0.0,0.0,92,0.00,OVC,,0.00,0.0,WeatherDisplay:10.37,2013-05-24 01:50:00,
2013-05-24 03:55:00,40.4,38.3,29.87,West,281,7.0,7.0,92,0.00,OVC,,0.00,0.0,WeatherDisplay:10.37,2013-05-24 01:55:00,
2013-05-24 04:00:00,40.1,37.4,29.87,NW,319,4.6,4.6,90,0.00,OVC,,0.00,0.0,WeatherDisplay:10.37,2013-05-24 02:00:00,
2013-05-24 04:05:00,40.3,37.0,29.87,NNW,328,4.6,4.6,88,0.00,OVC,,0.00,0.0,WeatherDisplay:10.37,2013-05-24 02:05:00,
2013-05-24 04:10:00,40.6,36.4,29.87,WNW,288,0.0,0.0,85,0.00,OVC,,0.00,0.0,WeatherDisplay:10.37,2013-05-24 02:10:00,
2013-05-24 04:15:00,40.6,35.8,29.86,WNW,289,3.5,3.5,83,0.00,OVC,,0.00,0.0,WeatherDisplay:10.37,2013-05-24 02:15:00,
2013-05-24 04:20:00,40.7,35.6,29.86,WNW,286,4.6,4.6,82,0.00,OVC,,0.00,0.0,WeatherDisplay:10.37,2013-05-24 02:20:00,
2013-05-24 04:25:00,41.1,35.4,29.86,NW,305,1.2,1.2,80,0.00,OVC,,0.00,0.0,WeatherDisplay:10.37,2013-05-24 02:25:00,
2013-05-24 04:30:00,41.3,34.6,29.86,West,269,7.0,7.0,77,0.00,OVC,,0.00,0.0,WeatherDisplay:10.37,2013-05-24 02:30:00,
2013-05-24 04:35:00,41.5,34.2,29.86,WNW,286,5.8,5.8,75,0.00,OVC,,0.00,0.0,WeatherDisplay:10.37,2013-05-24 02:35:00,
2013-05-24 04:40:00,41.6,34.3,29.86,WNW,298,11.5,11.5,75,0.00,OVC,,0.00,0.0,WeatherDisplay:10.37,2013-05-24 02:40:00,
2013-05-24 04:45:00,41.8,33.4,29.86,NW,304,6.9,6.9,72,0.00,OVC,,0.00,0.0,WeatherDisplay:10.37,2013-05-24 02:45:00,
2013-05-24 04:50:00,41.9,33.5,29.86,WNW,302,3.5,3.5,72,0.00,OVC,,0.00,0.0,WeatherDisplay:10.37,2013-05-24 02:50:00,
2013-05-24 04:55:00,42.0,33.3,29.86,WNW,296,9.2,9.2,71,0.00,OVC,,0.00,0.0,WeatherDisplay:10.37,2013-05-24 02:55:00,
2013-05-24 05:00:00,42.0,33.3,29.86,NW,304,6.9,6.9,71,0.00,OVC,,0.00,0.0,WeatherDisplay:10.37,2013-05-24 03:00:00,
2013-05-24 05:05:00,42.2,33.1,29.86,North,355,4.6,4.6,70,0.00,OVC,,0.00,0.0,WeatherDisplay:10.37,2013-05-24 03:05:00,
2013-05-24 05:10:00,42.1,33.4,29.86,WNW,285,3.5,3.5,71,0.00,OVC,,0.00,0.0,WeatherDisplay:10.37,2013-05-24 03:10:00,
2013-05-24 05:15:00,42.0,33.6,29.86,WNW,302,3.5,3.5,72,0.00,OVC,,0.00,0.0,WeatherDisplay:10.37,2013-05-24 03:15:00,
2013-05-24 05:20:00,42.1,33.7,29.86,NNE,25,1.0,0.0,72,0.00,OVC,,0.00,0.0,WeatherDisplay:10.37,2013-05-24 03:20:00,
2013-05-24 05:25:00,42.2,33.5,29.86,North,355,3.5,3.5,71,0.00,OVC,,0.00,0.0,WeatherDisplay:10.37,2013-05-24 03:25:00,
2013-05-24 05:30:00,42.2,34.2,29.86,NW,309,0.0,0.0,73,0.00,OVC,,0.00,0.0,WeatherDisplay:10.37,2013-05-24 03:30:00,
2013-05-24 05:35:00,42.1,34.4,29.86,NW,309,0.0,0.1,74,0.00,OVC,,0.00,0.0,WeatherDisplay:10.37,2013-05-24 03:35:00,
2013-05-24 05:40:00,42.0,34.0,29.86,NNW,342,0.0,0.0,73,0.00,OVC,,0.00,0.0,WeatherDisplay:10.37,2013-05-24 03:40:00,
2013-05-24 05:45:00,42.0,34.6,29.87,NNW,343,0.0,0.0,75,0.00,OVC,,0.00,0.0,WeatherDisplay:10.37,2013-05-24 03:45:00,
2013-05-24 05:50:00,41.9,34.9,29.87,NNW,343,0.0,0.2,76,0.00,OVC,,0.00,0.0,WeatherDisplay:10.37,2013-05-24 03:50:00,
2013-05-24 05:55:00,42.0,34.3,29.87,NW,307,5.0,5.0,74,0.00,OVC,,0.00,0.0,WeatherDisplay:10.37,2013-05-24 03:55:00,
2013-05-24 06:00:00,42.1,34.4,29.87,NNW,333,1.2,1.2,74,0.00,OVC,,0.00,0.0,WeatherDisplay:10.37,2013-05-24 04:00:00,
2013-05-24 06:01:00,42.1,34.4,29.87,NNW,334,1.2,0.0,74,0.00,OVC,,0.00,0.0,WeatherDisplay:10.37,2013-05-24 04:01:00,
2013-05-24 06:06:00,42.1,34.1,29.88,North,9,3.5,3.5,73,0.00,OVC,,0.00,0.0,WeatherDisplay:10.37,2013-05-24 04:06:00,
2013-05-24 06:11:00,42.2,34.2,29.88,NNW,338,1.2,1.2,73,0.00,OVC,,0.00,0.0,WeatherDisplay:10.37,2013-05-24 04:11:00,
2013-05-24 06:16:00,42.2,33.8,29.88,NW,305,3.5,3.5,72,0.00,OVC,,0.00,0.0,WeatherDisplay:10.37,2013-05-24 04:16:00,
2013-05-24 06:21:00,42.3,33.6,29.88,NW,305,3.5,3.5,71,0.00,OVC,,0.00,0.0,WeatherDisplay:10.37,2013-05-24 04:21:00,
2013-05-24 06:26:00,42.3,33.6,29.88,West,281,3.5,3.5,71,0.00,OVC,,0.00,0.0,WeatherDisplay:10.37,2013-05-24 04:26:00,
2013-05-24 06:31:00,42.2,33.5,29.88,NW,319,3.5,3.5,71,0.00,OVC,,0.00,0.0,WeatherDisplay:10.37,2013-05-24 04:31:00,
2013-05-24 06:36:00,42.2,33.5,29.88,WNW,292,4.6,4.6,71,0.00,BKN,,0.00,7.0,WeatherDisplay:10.37,2013-05-24 04:36:00,
2013-05-24 06:41:00,42.2,33.8,29.88,WNW,291,3.0,3.0,72,0.00,BKN,,0.00,9.0,WeatherDisplay:10.37,2013-05-24 04:41:00,
2013-05-24 06:46:00,42.2,34.2,29.88,WNW,291,2.3,0.0,73,0.00,BKN,,0.00,11.0,WeatherDisplay:10.37,2013-05-24 04:46:00,
2013-05-24 06:51:00,42.2,34.5,29.88,WNW,291,0.0,0.0,74,0.00,BKN,,0.00,16.0,WeatherDisplay:10.37,2013-05-24 04:51:00,
2013-05-24 06:56:00,42.1,34.4,29.89,WNW,291,0.0,0.0,74,0.00,BKN,,0.00,26.0,WeatherDisplay:10.37,2013-05-24 04:56:00,
2013-05-24 07:01:00,42.0,34.3,29.89,WNW,290,0.0,0.0,74,0.00,BKN,,0.00,35.0,WeatherDisplay:10.37,2013-05-24 05:01:00,
2013-05-24 07:06:00,42.1,34.7,29.89,WNW,291,0.0,0.0,75,0.00,BKN,,0.00,35.0,WeatherDisplay:10.37,2013-05-24 05:06:00,
2013-05-24 07:11:00,42.1,34.4,29.89,WNW,290,0.0,0.0,74,0.00,BKN,,0.00,46.0,WeatherDisplay:10.37,2013-05-24 05:11:00,
2013-05-24 07:16:00,42.1,34.7,29.89,WNW,290,0.0,0.0,75,0.00,BKN,,0.00,65.0,WeatherDisplay:10.37,2013-05-24 05:16:00,
2013-05-24 07:21:00,42.2,34.5,29.89,WNW,291,0.0,0.0,74,0.00,BKN,,0.00,70.0,WeatherDisplay:10.37,2013-05-24 05:21:00,
2013-05-24 07:26:00,42.3,34.6,29.89,WNW,291,0.0,0.0,74,0.00,BKN,,0.00,76.0,WeatherDisplay:10.37,2013-05-24 05:26:00,
2013-05-24 07:31:00,42.5,34.5,29.89,WNW,290,0.0,0.0,73,0.00,BKN,,0.00,105.0,WeatherDisplay:10.37,2013-05-24 05:31:00,
2013-05-24 07:36:00,42.8,35.1,29.89,WNW,291,0.0,0.0,74,0.00,BKN,,0.00,109.0,WeatherDisplay:10.37,2013-05-24 05:36:00,
2013-05-24 07:41:00,43.0,34.2,29.89,WNW,291,0.0,0.0,71,0.00,SCT,,0.00,144.0,WeatherDisplay:10.37,2013-05-24 05:41:00,
2013-05-24 07:46:00,43.4,35.3,29.89,WNW,291,0.0,0.0,73,0.00,SCT,,0.00,167.0,WeatherDisplay:10.37,2013-05-24 05:46:00,
2013-05-24 07:51:00,43.5,35.4,29.89,WNW,290,0.0,0.0,73,0.00,CLR,,0.00,199.0,WeatherDisplay:10.37,2013-05-24 05:51:00,
2013-05-24 07:56:00,44.0,35.9,29.89,WNW,290,0.0,0.0,73,0.00,CLR,,0.00,336.0,WeatherDisplay:10.37,2013-05-24 05:56:00,
2013-05-24 08:01:00,44.0,34.5,29.89,WNW,291,3.5,0.0,69,0.00,CLR,,0.00,355.0,WeatherDisplay:10.37,2013-05-24 06:01:00,
2013-05-24 08:06:00,44.6,34.7,29.89,WNW,291,0.0,0.0,68,0.00,CLR,,0.00,200.0,WeatherDisplay:10.37,2013-05-24 06:06:00,
2013-05-24 08:11:00,45.0,34.3,29.89,ENE,65,3.5,3.5,66,0.00,CLR,,0.00,390.0,WeatherDisplay:10.37,2013-05-24 06:11:00,
2013-05-24 08:17:00,45.5,33.6,29.89,West,274,5.0,5.0,63,0.00,CLR,,0.00,413.0,WeatherDisplay:10.37,2013-05-24 06:17:00,
2013-05-24 08:22:00,45.6,33.7,29.89,NE,44,3.5,3.5,63,0.00,SCT,,0.00,239.0,WeatherDisplay:10.37,2013-05-24 06:22:00,
2013-05-24 08:27:00,45.1,32.4,29.90,NE,38,3.5,3.5,61,0.00,SCT,,0.00,299.0,WeatherDisplay:10.37,2013-05-24 06:27:00,
2013-05-24 08:32:00,44.7,32.9,29.90,NE,43,6.0,6.0,63,0.00,BKN,,0.00,181.0,WeatherDisplay:10.37,2013-05-24 06:32:00,
2013-05-24 08:37:00,44.8,33.7,29.90,NE,49,2.0,2.0,65,0.00,BKN,,0.00,160.0,WeatherDisplay:10.37,2013-05-24 06:37:00,
2013-05-24 08:42:00,44.3,31.7,29.90,NE,49,0.0,0.0,61,0.00,BKN,,0.00,156.0,WeatherDisplay:10.37,2013-05-24 06:42:00,
2013-05-24 08:47:00,44.5,33.1,29.90,NNW,331,2.3,2.3,64,0.00,BKN,,0.00,130.0,WeatherDisplay:10.37,2013-05-24 06:47:00,
2013-05-24 08:52:00,44.2,34.3,29.90,SW,225,2.0,2.3,68,0.00,BKN,,0.00,135.0,WeatherDisplay:10.37,2013-05-24 06:52:00,
2013-05-24 08:57:00,44.0,33.0,29.91,WNW,300,6.9,6.9,65,0.00,BKN,,0.00,171.0,WeatherDisplay:10.37,2013-05-24 06:57:00,
2013-05-24 09:02:00,44.1,33.5,29.90,WNW,298,6.9,6.9,66,0.00,BKN,,0.00,192.0,WeatherDisplay:10.37,2013-05-24 07:02:00,
2013-05-24 09:07:00,44.2,32.8,29.90,WNW,292,2.0,2.0,64,0.00,BKN,,0.00,197.0,WeatherDisplay:10.37,2013-05-24 07:07:00,
2013-05-24 09:12:00,44.3,32.9,29.90,WSW,245,3.5,3.5,64,0.00,BKN,,0.00,230.0,WeatherDisplay:10.37,2013-05-24 07:12:00,
2013-05-24 09:17:00,44.5,32.3,29.90,WSW,245,3.5,3.5,62,0.00,BKN,,0.00,297.0,WeatherDisplay:10.37,2013-05-24 07:17:00,
2013-05-24 09:22:00,44.5,32.7,29.91,WSW,245,2.3,2.3,63,0.00,SCT,,0.00,297.0,WeatherDisplay:10.37,2013-05-24 07:22:00,
2013-05-24 09:27:00,45.8,32.7,29.90,WSW,245,0.0,0.0,60,0.00,CLR,,0.00,847.0,WeatherDisplay:10.37,2013-05-24 07:27:00,
2013-05-24 09:32:00,47.1,35.5,29.90,WNW,294,2.3,2.3,64,0.00,CLR,,0.00,782.0,WeatherDisplay:10.37,2013-05-24 07:32:00,
2013-05-24 09:37:00,46.2,31.8,29.90,NNE,18,1.2,0.0,57,0.00,BKN,,0.00,271.0,WeatherDisplay:10.37,2013-05-24 07:37:00,
2013-05-24 09:42:00,45.9,34.0,29.90,North,351,2.3,2.3,63,0.00,BKN,,0.00,232.0,WeatherDisplay:10.37,2013-05-24 07:42:00,
2013-05-24 09:47:00,45.3,32.6,29.90,NNE,26,1.2,1.2,61,0.00,BKN,,0.00,246.0,WeatherDisplay:10.37,2013-05-24 07:47:00,
2013-05-24 09:52:00,45.2,32.1,29.90,NNE,13,0.0,0.0,60,0.00,BKN,,0.00,325.0,WeatherDisplay:10.37,2013-05-24 07:52:00,
2013-05-24 09:57:00,46.7,35.6,29.90,North,11,2.0,2.0,65,0.00,CLR,,0.00,909.0,WeatherDisplay:10.37,2013-05-24 07:57:00,
2013-05-24 10:02:00,46.6,32.6,29.90,NNW,327,3.5,3.5,58,0.00,SCT,,0.00,403.0,WeatherDisplay:10.37,2013-05-24 08:02:00,
2013-05-24 10:07:00,47.7,35.3,29.90,West,280,0.0,0.0,62,0.00,CLR,,0.00,773.0,WeatherDisplay:10.37,2013-05-24 08:07:00,
2013-05-24 10:12:00,47.7,33.6,29.90,NNW,330,5.0,5.0,58,0.00,CLR,,0.00,916.0,WeatherDisplay:10.37,2013-05-24 08:12:00,
2013-05-24 10:17:00,47.3,32.4,29.90,NNE,15,3.5,3.5,56,0.00,CLR,,0.00,789.0,WeatherDisplay:10.37,2013-05-24 08:17:00,
2013-05-24 10:22:00,46.8,32.4,29.90,NNE,12,9.2,9.2,57,0.00,SCT,,0.00,429.0,WeatherDisplay:10.37,2013-05-24 08:22:00,
2013-05-24 10:27:00,47.4,33.4,29.90,NNW,348,0.0,0.0,58,0.00,SCT,,0.00,536.0,WeatherDisplay:10.37,2013-05-24 08:27:00,
2013-05-24 10:32:00,47.5,31.2,29.90,SW,232,3.5,3.5,53,0.00,SCT,,0.00,548.0,WeatherDisplay:10.37,2013-05-24 08:32:00,
2013-05-24 10:37:00,47.6,33.5,29.90,SE,138,3.5,3.5,58,0.00,CLR,,0.00,759.0,WeatherDisplay:10.37,2013-05-24 08:37:00,
2013-05-24 10:42:00,48.3,34.2,29.90,ENE,67,3.5,3.5,58,0.00,CLR,,0.00,930.0,WeatherDisplay:10.37,2013-05-24 08:42:00,
2013-05-24 10:47:00,47.8,35.0,29.90,ESE,103,6.9,6.9,61,0.00,CLR,,0.00,1176.0,WeatherDisplay:10.37,2013-05-24 08:47:00,
2013-05-24 10:52:00,49.1,37.0,29.90,South,183,4.6,4.6,63,0.00,CLR,,0.00,977.0,WeatherDisplay:10.37,2013-05-24 08:52:00,
2013-05-24 10:57:00,47.3,34.1,29.91,ESE,108,3.5,3.5,60,0.00,BKN,,0.00,316.0,WeatherDisplay:10.37,2013-05-24 08:57:00,
2013-05-24 11:02:00,46.6,33.9,29.91,ESE,107,3.5,3.5,61,0.00,BKN,,0.00,329.0,WeatherDisplay:10.37,2013-05-24 09:02:00,
2013-05-24 11:07:00,46.4,34.1,29.91,East,86,3.5,3.5,62,0.00,BKN,,0.00,338.0,WeatherDisplay:10.37,2013-05-24 09:07:00,
2013-05-24 11:12:00,46.1,32.1,29.91,East,91,3.5,3.5,58,0.00,BKN,,0.00,338.0,WeatherDisplay:10.37,2013-05-24 09:12:00,
2013-05-24 11:17:00,46.3,33.2,29.91,East,91,4.6,4.6,60,0.00,BKN,,0.00,387.0,WeatherDisplay:10.37,2013-05-24 09:17:00,
2013-05-24 11:22:00,46.6,33.0,29.91,East,91,4.6,4.6,59,0.00,BKN,,0.00,411.0,WeatherDisplay:10.37,2013-05-24 09:22:00,
2013-05-24 11:27:00,46.7,34.0,29.91,East,92,4.6,4.6,61,0.00,BKN,,0.00,357.0,WeatherDisplay:10.37,2013-05-24 09:27:00,
2013-05-24 11:32:00,46.5,33.4,29.91,SSE,153,4.6,4.6,60,0.00,BKN,,0.00,417.0,WeatherDisplay:10.37,2013-05-24 09:32:00,
2013-05-24 11:37:00,47.6,36.0,29.91,SE,138,3.5,3.5,64,0.00,SCT,,0.00,657.0,WeatherDisplay:10.37,2013-05-24 09:37:00,
2013-05-24 11:42:00,48.2,34.1,29.91,ESE,123,8.1,8.1,58,0.00,SCT,,0.00,591.0,WeatherDisplay:10.37,2013-05-24 09:42:00,
2013-05-24 11:47:00,47.8,33.7,29.91,ESE,107,4.6,4.6,58,0.00,SCT,,0.00,506.0,WeatherDisplay:10.37,2013-05-24 09:47:00,
2013-05-24 11:52:00,46.9,32.4,29.91,ESE,122,3.5,3.5,57,0.00,BKN,,0.00,352.0,WeatherDisplay:10.37,2013-05-24 09:52:00,
2013-05-24 11:57:00,47.0,33.0,29.91,SE,146,6.9,6.9,58,0.00,BKN,,0.00,318.0,WeatherDisplay:10.37,2013-05-24 09:57:00,
2013-05-24 12:02:00,46.8,32.8,29.91,ESE,117,3.0,3.0,58,0.00,BKN,,0.00,357.0,WeatherDisplay:10.37,2013-05-24 10:02:00,
2013-05-24 12:07:00,47.2,34.0,29.91,East,82,2.3,2.3,60,0.00,BKN,,0.00,323.0,WeatherDisplay:10.37,2013-05-24 10:07:00,
2013-05-24 12:12:00,47.1,33.9,29.90,East,96,5.0,5.0,60,0.00,BKN,,0.00,271.0,WeatherDisplay:10.37,2013-05-24 10:12:00,
2013-05-24 12:17:00,46.6,32.6,29.91,ESE,104,2.3,2.3,58,0.00,BKN,,0.00,206.0,WeatherDisplay:10.37,2013-05-24 10:17:00,
2013-05-24 12:22:00,46.8,34.5,29.91,ESE,104,2.3,2.3,62,0.00,BKN,,0.00,153.0,WeatherDisplay:10.37,2013-05-24 10:22:00,
2013-05-24 12:27:00,46.6,33.0,29.91,East,94,3.5,3.5,59,0.00,BKN,,0.00,130.0,WeatherDisplay:10.37,2013-05-24 10:27:00,
2013-05-24 12:32:00,46.6,33.9,29.91,East,94,0.0,0.0,61,0.00,BKN,,0.00,137.0,WeatherDisplay:10.37,2013-05-24 10:32:00,
2013-05-24 12:37:00,46.7,34.0,29.91,West,279,2.3,2.3,61,0.00,BKN,,0.00,174.0,WeatherDisplay:10.37,2013-05-24 10:37:00,
2013-05-24 12:42:00,46.8,34.9,29.91,WNW,286,1.2,1.2,63,0.00,BKN,,0.00,211.0,WeatherDisplay:10.37,2013-05-24 10:42:00,
2013-05-24 12:47:00,46.9,35.4,29.91,WNW,282,6.9,6.9,64,0.00,BKN,,0.00,264.0,WeatherDisplay:10.37,2013-05-24 10:47:00,
2013-05-24 12:52:00,47.0,37.0,29.91,WNW,282,1.2,1.2,68,0.00,BKN,,0.00,318.0,WeatherDisplay:10.37,2013-05-24 10:52:00,
2013-05-24 12:57:00,47.4,37.0,29.91,WNW,282,2.3,2.3,67,0.00,BKN,,0.00,543.0,WeatherDisplay:10.37,2013-05-24 10:57:00,
2013-05-24 13:02:00,47.9,36.7,29.91,WNW,282,3.5,3.5,65,0.00,BKN,,0.00,452.0,WeatherDisplay:10.37,2013-05-24 11:02:00,
2013-05-24 13:07:00,47.6,34.8,29.90,WNW,282,0.0,0.0,61,0.00,BKN,,0.00,404.0,WeatherDisplay:10.37,2013-05-24 11:07:00,
2013-05-24 13:12:00,48.1,37.3,29.90,WNW,282,4.0,4.0,66,0.00,BKN,,0.00,376.0,WeatherDisplay:10.37,2013-05-24 11:12:00,
2013-05-24 13:17:00,48.6,35.7,29.90,West,270,3.5,3.5,61,0.00,BKN,,0.00,360.0,WeatherDisplay:10.37,2013-05-24 11:17:00,
2013-05-24 13:22:00,49.6,36.7,29.90,West,277,5.8,5.8,61,0.00,SCT,,0.00,1225.0,WeatherDisplay:10.37,2013-05-24 11:22:00,
2013-05-24 13:27:00,50.4,38.3,29.90,WNW,290,4.6,4.6,63,0.00,CLR,,0.00,1218.0,WeatherDisplay:10.37,2013-05-24 11:27:00,
2013-05-24 13:32:00,50.3,36.1,29.90,SW,234,1.2,1.2,58,0.00,CLR,,0.00,1055.0,WeatherDisplay:10.37,2013-05-24 11:32:00,
2013-05-24 13:37:00,51.1,35.5,29.90,West,269,10.4,10.4,55,0.00,CLR,,0.00,1167.0,WeatherDisplay:10.37,2013-05-24 11:37:00,
2013-05-24 13:42:00,52.2,37.9,29.89,SSW,205,4.0,4.0,58,0.00,CLR,,0.00,243.0,WeatherDisplay:10.37,2013-05-24 11:42:00,
2013-05-24 13:47:00,50.4,35.3,29.90,West,259,5.8,5.8,56,0.00,BKN,,0.00,281.0,WeatherDisplay:10.37,2013-05-24 11:47:00,
2013-05-24 13:53:00,49.6,35.0,29.89,SSW,200,2.3,2.3,57,0.00,BKN,,0.00,297.0,WeatherDisplay:10.37,2013-05-24 11:53:00,
2013-05-24 13:57:00,51.6,37.7,29.89,South,184,5.8,5.8,59,0.00,CLR,,0.00,933.0,WeatherDisplay:10.37,2013-05-24 11:57:00,
2013-05-24 14:03:00,51.7,36.0,29.89,South,171,6.9,6.9,55,0.00,FEW,,0.00,640.0,WeatherDisplay:10.37,2013-05-24 12:03:00,
2013-05-24 14:08:00,52.4,36.7,29.89,SSE,154,4.6,4.6,55,0.00,CLR,,0.00,921.0,WeatherDisplay:10.37,2013-05-24 12:08:00,
2013-05-24 14:13:00,51.9,38.0,29.89,WSW,250,6.9,6.9,59,0.00,CLR,,0.00,1079.0,WeatherDisplay:10.37,2013-05-24 12:13:00,
2013-05-24 14:18:00,52.2,35.6,29.89,SE,137,5.8,5.8,53,0.00,CLR,,0.00,1111.0,WeatherDisplay:10.37,2013-05-24 12:18:00,
2013-05-24 14:23:00,53.3,38.4,29.89,ESE,118,3.5,3.5,57,0.00,CLR,,0.00,1176.0,WeatherDisplay:10.37,2013-05-24 12:23:00,
2013-05-24 14:28:00,53.5,35.3,29.89,South,190,3.5,3.5,50,0.00,CLR,,0.00,1130.0,WeatherDisplay:10.37,2013-05-24 12:28:00,
2013-05-24 14:33:00,53.1,35.9,29.89,West,265,10.4,10.4,52,0.00,CLR,,0.00,1074.0,WeatherDisplay:10.37,2013-05-24 12:33:00,
2013-05-24 14:38:00,53.4,36.7,29.89,West,279,3.5,3.5,53,0.00,CLR,,0.00,1206.0,WeatherDisplay:10.37,2013-05-24 12:38:00,
2013-05-24 14:43:00,53.5,38.6,29.89,South,188,4.6,4.6,57,0.00,SCT,,0.00,1181.0,WeatherDisplay:10.37,2013-05-24 12:43:00,
2013-05-24 14:48:00,53.8,38.0,29.89,West,262,11.5,11.5,55,0.00,CLR,,0.00,1055.0,WeatherDisplay:10.37,2013-05-24 12:48:00,
2013-05-24 14:53:00,53.9,37.1,29.89,WSW,246,11.5,11.5,53,0.00,CLR,,0.00,1062.0,WeatherDisplay:10.37,2013-05-24 12:53:00,
2013-05-24 14:58:00,53.6,37.3,29.89,SW,235,8.1,8.1,54,0.00,CLR,,0.00,1053.0,WeatherDisplay:10.37,2013-05-24 12:58:00,
2013-05-24 15:03:00,53.4,37.2,29.89,West,270,12.7,12.7,54,0.00,CLR,,0.00,1056.0,WeatherDisplay:10.37,2013-05-24 13:03:00,
2013-05-24 15:08:00,53.7,37.0,29.89,WNW,285,9.2,9.2,53,0.00,CLR,,0.00,1062.0,WeatherDisplay:10.37,2013-05-24 13:08:00,
2013-05-24 15:13:00,53.5,34.3,29.89,WSW,257,3.5,3.5,48,0.00,CLR,,0.00,1027.0,WeatherDisplay:10.37,2013-05-24 13:13:00,
2013-05-24 15:18:00,53.6,33.8,29.89,NW,306,9.2,9.2,47,0.00,CLR,,0.00,983.0,WeatherDisplay:10.37,2013-05-24 13:18:00,
2013-05-24 15:23:00,53.1,32.3,29.88,SSW,192,3.5,3.5,45,0.00,CLR,,0.00,1028.0,WeatherDisplay:10.37,2013-05-24 13:23:00,
2013-05-24 15:28:00,52.2,35.6,29.89,WNW,285,12.0,12.0,53,0.00,BKN,,0.00,316.0,WeatherDisplay:10.37,2013-05-24 13:28:00,
2013-05-24 15:33:00,53.2,37.0,29.88,West,279,12.0,12.0,54,0.00,CLR,,0.00,1014.0,WeatherDisplay:10.37,2013-05-24 13:33:00,
2013-05-24 15:38:00,54.5,38.2,29.88,West,274,15.0,15.0,54,0.00,CLR,,0.00,1123.0,WeatherDisplay:10.37,2013-05-24 13:38:00,
2013-05-24 15:43:00,53.9,36.2,29.89,SW,220,6.0,6.0,51,0.00,SCT,,0.00,425.0,WeatherDisplay:10.37,2013-05-24 13:43:00,
2013-05-24 15:48:00,53.0,37.7,29.88,WSW,252,6.0,6.0,56,0.00,BKN,,0.00,424.0,WeatherDisplay:10.37,2013-05-24 13:48:00,
2013-05-24 15:53:00,53.1,35.9,29.89,WNW,283,5.8,5.8,52,0.00,SCT,,0.00,327.0,WeatherDisplay:10.37,2013-05-24 13:53:00,
2013-05-24 15:58:00,52.2,35.1,29.89,NW,307,8.1,8.1,52,0.00,BKN,,0.00,309.0,WeatherDisplay:10.37,2013-05-24 13:58:00,
2013-05-24 16:03:00,51.3,34.3,29.89,West,281,3.5,3.5,52,0.00,BKN,,0.00,230.0,WeatherDisplay:10.37,2013-05-24 14:03:00,
2013-05-24 16:08:00,50.8,33.3,29.89,NW,324,1.2,1.2,51,0.00,BKN,,0.00,276.0,WeatherDisplay:10.37,2013-05-24 14:08:00,
2013-05-24 16:13:00,52.4,34.3,29.88,West,265,3.5,3.5,50,0.00,CLR,,0.00,933.0,WeatherDisplay:10.37,2013-05-24 14:13:00,
2013-05-24 16:18:00,53.0,34.8,29.88,SSE,156,3.5,3.5,50,0.00,CLR,,0.00,946.0,WeatherDisplay:10.37,2013-05-24 14:18:00,
2013-05-24 16:23:00,53.0,36.8,29.88,West,261,10.4,10.4,54,0.00,BKN,,0.00,271.0,WeatherDisplay:10.37,2013-05-24 14:23:00,
2013-05-24 16:28:00,52.4,34.8,29.88,WSW,254,5.8,5.8,51,0.00,BKN,,0.00,267.0,WeatherDisplay:10.37,2013-05-24 14:28:00,
2013-05-24 16:33:00,52.2,34.6,29.88,SSW,196,3.0,3.0,51,0.00,BKN,,0.00,292.0,WeatherDisplay:10.37,2013-05-24 14:33:00,
2013-05-24 16:38:00,51.8,34.2,29.88,SSE,157,2.3,0.0,51,0.00,BKN,,0.00,292.0,WeatherDisplay:10.37,2013-05-24 14:38:00,
2013-05-24 16:43:00,52.7,35.1,29.88,ESE,121,4.6,4.6,51,0.00,FEW,,0.00,195.0,WeatherDisplay:10.37,2013-05-24 14:43:00,
2013-05-24 16:48:00,51.5,35.9,29.88,North,5,5.8,5.8,55,0.00,BKN,,0.00,141.0,WeatherDisplay:10.37,2013-05-24 14:48:00,
2013-05-24 16:53:00,51.5,34.4,29.88,NNW,336,0.0,0.1,52,0.00,BKN,,0.00,132.0,WeatherDisplay:10.37,2013-05-24 14:53:00,
2013-05-24 16:58:00,51.3,34.7,29.88,WNW,294,3.5,3.5,53,0.00,BKN,,0.00,114.0,WeatherDisplay:10.37,2013-05-24 14:58:00,
2013-05-24 17:03:00,51.2,36.9,29.88,West,262,2.0,2.0,58,0.00,BKN,,0.00,120.0,WeatherDisplay:10.37,2013-05-24 15:03:00,
2013-05-24 17:08:00,51.2,35.1,29.88,SW,224,2.3,2.3,54,0.00,BKN,,0.00,109.0,WeatherDisplay:10.37,2013-05-24 15:08:00,
2013-05-24 17:13:00,51.1,35.9,29.88,West,266,4.6,4.6,56,0.00,BKN,,0.00,91.0,WeatherDisplay:10.37,2013-05-24 15:13:00,
2013-05-24 17:18:00,50.8,34.7,29.88,WNW,291,8.1,8.1,54,0.00,BKN,,0.00,84.0,WeatherDisplay:10.37,2013-05-24 15:18:00,
2013-05-24 17:23:00,50.6,34.6,29.88,WNW,294,5.8,5.8,54,0.00,BKN,,0.00,77.0,WeatherDisplay:10.37,2013-05-24 15:23:00,
2013-05-24 17:28:00,50.2,34.6,29.89,West,274,11.5,11.5,55,0.00,BKN,,0.00,83.0,WeatherDisplay:10.37,2013-05-24 15:28:00,
2013-05-24 17:33:00,49.7,35.1,29.88,WNW,289,5.8,5.8,57,0.00,BKN,,0.00,88.0,WeatherDisplay:10.37,2013-05-24 15:33:00,
2013-05-24 17:38:00,49.5,35.3,29.88,West,273,6.9,6.9,58,0.00,BKN,,0.00,90.0,WeatherDisplay:10.37,2013-05-24 15:38:00,
2013-05-24 17:43:00,49.5,34.9,29.88,NW,309,5.8,5.8,57,0.00,BKN,,0.00,97.0,WeatherDisplay:10.37,2013-05-24 15:43:00,
2013-05-24 17:48:00,49.5,35.3,29.88,NW,323,5.8,5.8,58,0.00,BKN,,0.00,102.0,WeatherDisplay:10.37,2013-05-24 15:48:00,
2013-05-24 17:53:00,49.7,35.9,29.88,NNW,332,4.6,4.6,59,0.00,BKN,,0.00,105.0,WeatherDisplay:10.37,2013-05-24 15:53:00,
2013-05-24 17:58:00,49.8,36.0,29.88,West,275,2.3,0.0,59,0.00,BKN,,0.00,98.0,WeatherDisplay:10.37,2013-05-24 15:58:00,
2013-05-24 18:03:00,49.9,36.1,29.88,WNW,303,3.0,3.0,59,0.00,BKN,,0.00,97.0,WeatherDisplay:10.37,2013-05-24 16:03:00,
2013-05-24 18:08:00,49.9,35.7,29.88,West,268,2.3,2.3,58,0.00,BKN,,0.00,102.0,WeatherDisplay:10.37,2013-05-24 16:08:00,
2013-05-24 18:13:00,49.9,36.1,29.88,NW,317,3.5,3.5,59,0.00,BKN,,0.00,128.0,WeatherDisplay:10.37,2013-05-24 16:13:00,
2013-05-24 18:18:00,49.8,35.6,29.88,WNW,292,2.3,2.3,58,0.00,BKN,,0.00,151.0,WeatherDisplay:10.37,2013-05-24 16:18:00,
2013-05-24 18:23:00,50.1,35.9,29.88,West,267,3.5,3.5,58,0.00,BKN,,0.00,193.0,WeatherDisplay:10.37,2013-05-24 16:23:00,
2013-05-24 18:28:00,50.7,36.5,29.88,WNW,282,3.5,3.5,58,0.00,SCT,,0.00,239.0,WeatherDisplay:10.37,2013-05-24 16:28:00,
2013-05-24 18:33:00,51.1,36.4,29.88,WNW,300,3.5,3.5,57,0.00,SCT,,0.00,250.0,WeatherDisplay:10.37,2013-05-24 16:33:00,
2013-05-24 18:38:00,51.1,35.9,29.88,WSW,247,3.0,3.0,56,0.00,FEW,,0.00,237.0,WeatherDisplay:10.37,2013-05-24 16:38:00,
2013-05-24 18:43:00,51.1,35.9,29.88,WNW,285,0.0,0.0,56,0.00,SCT,,0.00,186.0,WeatherDisplay:10.37,2013-05-24 16:43:00,
2013-05-24 18:48:00,51.2,37.4,29.88,WNW,285,0.0,0.0,59,0.00,SCT,,0.00,165.0,WeatherDisplay:10.37,2013-05-24 16:48:00,
2013-05-24 18:53:00,50.8,34.3,29.88,WNW,302,2.3,2.3,53,0.00,SCT,,0.00,148.0,WeatherDisplay:10.37,2013-05-24 16:53:00,
2013-05-24 18:58:00,50.7,35.6,29.88,WNW,302,3.5,3.5,56,0.00,SCT,,0.00,137.0,WeatherDisplay:10.37,2013-05-24 16:58:00,
2013-05-24 19:03:00,50.7,34.6,29.88,WNW,302,2.3,2.3,54,0.00,SCT,,0.00,128.0,WeatherDisplay:10.37,2013-05-24 17:03:00,
2013-05-24 19:08:00,50.6,35.0,29.88,WNW,302,0.0,0.0,55,0.00,BKN,,0.00,118.0,WeatherDisplay:10.37,2013-05-24 17:08:00,
2013-05-24 19:13:00,50.5,35.4,29.88,NW,306,0.0,0.0,56,0.00,BKN,,0.00,109.0,WeatherDisplay:10.37,2013-05-24 17:13:00,
2013-05-24 19:18:00,50.4,35.3,29.88,NW,306,0.0,0.0,56,0.00,BKN,,0.00,107.0,WeatherDisplay:10.37,2013-05-24 17:18:00,
2013-05-24 19:23:00,50.3,35.2,29.88,NW,306,0.0,0.0,56,0.00,BKN,,0.00,95.0,WeatherDisplay:10.37,2013-05-24 17:23:00,
2013-05-24 19:28:00,50.2,36.4,29.88,NW,306,1.0,1.0,59,0.00,BKN,,0.00,81.0,WeatherDisplay:10.37,2013-05-24 17:28:00,
2013-05-24 19:33:00,50.1,35.4,29.88,NW,306,0.0,0.0,57,0.00,BKN,,0.00,63.0,WeatherDisplay:10.37,2013-05-24 17:33:00,
2013-05-24 19:38:00,50.0,36.7,29.88,NW,306,0.0,0.0,60,0.00,BKN,,0.00,53.0,WeatherDisplay:10.37,2013-05-24 17:38:00,
2013-05-24 19:43:00,49.9,35.3,29.88,NW,306,0.0,0.0,57,0.00,BKN,,0.00,46.0,WeatherDisplay:10.37,2013-05-24 17:43:00,
2013-05-24 19:48:00,49.8,35.6,29.88,NW,306,1.0,1.0,58,0.00,BKN,,0.00,42.0,WeatherDisplay:10.37,2013-05-24 17:48:00,
2013-05-24 19:54:00,49.7,35.9,29.89,WNW,290,4.0,4.0,59,0.00,BKN,,0.00,40.0,WeatherDisplay:10.37,2013-05-24 17:54:00,
2013-05-24 19:59:00,49.5,34.4,29.89,SW,223,3.5,3.5,56,0.00,BKN,,0.00,42.0,WeatherDisplay:10.37,2013-05-24 17:59:00,
2013-05-24 20:04:00,49.4,35.2,29.89,SW,224,2.3,2.3,58,0.00,BKN,,0.00,42.0,WeatherDisplay:10.37,2013-05-24 18:04:00,
2013-05-24 20:09:00,49.2,34.6,29.89,WNW,282,2.3,2.3,57,0.00,BKN,,0.00,35.0,WeatherDisplay:10.37,2013-05-24 18:09:00,
2013-05-24 20:14:00,49.1,35.4,29.89,West,280,5.0,5.0,59,0.00,BKN,,0.00,26.0,WeatherDisplay:10.37,2013-05-24 18:14:00,
2013-05-24 20:19:00,48.8,35.1,29.89,West,274,3.5,3.5,59,0.00,BKN,,0.00,25.0,WeatherDisplay:10.37,2013-05-24 18:19:00,
2013-05-24 20:24:00,48.7,35.4,29.89,West,275,2.3,2.3,60,0.00,BKN,,0.00,21.0,WeatherDisplay:10.37,2013-05-24 18:24:00,
2013-05-24 20:29:00,48.3,35.5,29.90,West,259,8.1,8.1,61,0.00,BKN,,0.00,16.0,WeatherDisplay:10.37,2013-05-24 18:29:00,
2013-05-24 20:34:00,48.0,35.6,29.90,West,262,5.0,5.0,62,0.00,BKN,,0.00,16.0,WeatherDisplay:10.37,2013-05-24 18:34:00,
2013-05-24 20:39:00,47.8,36.2,29.90,West,277,3.5,3.5,64,0.00,SCT,,0.00,18.0,WeatherDisplay:10.37,2013-05-24 18:39:00,
2013-05-24 20:44:00,47.6,36.8,29.90,West,277,1.2,1.2,66,0.00,FEW,,0.00,18.0,WeatherDisplay:10.37,2013-05-24 18:44:00,
2013-05-24 20:49:00,47.5,35.5,29.90,West,277,0.0,0.0,63,0.00,CLR,,0.00,18.0,WeatherDisplay:10.37,2013-05-24 18:49:00,
2013-05-24 20:54:00,47.4,35.0,29.90,WSW,242,3.5,3.5,62,0.00,CLR,,0.00,14.0,WeatherDisplay:10.37,2013-05-24 18:54:00,
2013-05-24 20:59:00,47.3,34.5,29.90,WSW,248,4.6,4.6,61,0.00,OVC,,0.00,11.0,WeatherDisplay:10.37,2013-05-24 18:59:00,
2013-05-24 21:04:00,47.3,34.9,29.90,West,261,1.2,1.2,62,0.00,OVC,,0.00,9.0,WeatherDisplay:10.37,2013-05-24 19:04:00,
2013-05-24 21:09:00,47.2,34.0,29.90,West,277,3.5,3.5,60,0.00,OVC,,0.00,0.0,WeatherDisplay:10.37,2013-05-24 19:09:00,
2013-05-24 21:14:00,47.0,34.6,29.91,WSW,238,2.3,2.3,62,0.00,OVC,,0.00,0.0,WeatherDisplay:10.37,2013-05-24 19:14:00,
2013-05-24 21:19:00,46.9,35.0,29.91,WSW,238,0.0,0.0,63,0.00,OVC,,0.00,0.0,WeatherDisplay:10.37,2013-05-24 19:19:00,
2013-05-24 21:24:00,46.8,34.5,29.91,South,173,0.0,0.0,62,0.00,OVC,,0.00,0.0,WeatherDisplay:10.37,2013-05-24 19:24:00,
2013-05-24 21:29:00,46.8,34.5,29.91,WSW,243,1.2,1.2,62,0.00,OVC,,0.00,0.0,WeatherDisplay:10.37,2013-05-24 19:29:00,
2013-05-24 21:34:00,46.8,35.3,29.91,WSW,249,3.5,3.5,64,0.00,OVC,,0.00,0.0,WeatherDisplay:10.37,2013-05-24 19:34:00,
2013-05-24 21:39:00,46.5,35.7,29.91,SSW,212,4.0,4.0,66,0.00,OVC,,0.00,0.0,WeatherDisplay:10.37,2013-05-24 19:39:00,
2013-05-24 21:44:00,46.4,35.7,29.91,West,275,3.5,3.5,66,0.00,OVC,,0.00,0.0,WeatherDisplay:10.37,2013-05-24 19:44:00,
2013-05-24 21:49:00,46.2,35.8,29.92,NE,42,8.1,8.1,67,0.00,OVC,,0.00,0.0,WeatherDisplay:10.37,2013-05-24 19:49:00,
2013-05-24 21:54:00,46.0,36.0,29.92,West,266,2.3,2.3,68,0.00,OVC,,0.00,0.0,WeatherDisplay:10.37,2013-05-24 19:54:00,
2013-05-24 21:59:00,45.8,35.8,29.92,West,269,3.5,3.5,68,0.00,OVC,,0.00,0.0,WeatherDisplay:10.37,2013-05-24 19:59:00,
2013-05-24 22:04:00,45.5,35.9,29.92,SW,220,4.6,4.6,69,0.00,OVC,,0.00,0.0,WeatherDisplay:10.37,2013-05-24 20:04:00,
2013-05-24 22:09:00,45.4,36.2,29.92,SSW,192,2.3,2.3,70,0.00,OVC,,0.00,0.0,WeatherDisplay:10.37,2013-05-24 20:09:00,
2013-05-24 22:14:00,45.3,36.1,29.92,West,271,5.8,5.8,70,0.00,OVC,,0.00,0.0,WeatherDisplay:10.37,2013-05-24 20:14:00,
2013-05-24 22:19:00,45.1,36.3,29.92,WSW,238,1.2,0.0,71,0.00,OVC,,0.00,0.0,WeatherDisplay:10.37,2013-05-24 20:19:00,
2013-05-24 22:24:00,44.9,36.1,29.92,SSW,208,6.0,6.0,71,0.00,OVC,,0.00,0.0,WeatherDisplay:10.37,2013-05-24 20:24:00,
2013-05-24 22:29:00,44.7,36.2,29.92,WSW,253,4.6,4.6,72,0.00,OVC,,0.00,0.0,WeatherDisplay:10.37,2013-05-24 20:29:00,
2013-05-24 22:34:00,44.5,36.4,29.92,WNW,295,4.6,4.6,73,0.00,OVC,,0.00,0.0,WeatherDisplay:10.37,2013-05-24 20:34:00,
2013-05-24 22:39:00,44.3,36.5,29.92,WSW,247,4.6,4.6,74,0.00,OVC,,0.00,0.0,WeatherDisplay:10.37,2013-05-24 20:39:00,
2013-05-24 22:44:00,44.2,36.4,29.92,West,265,3.5,3.5,74,0.00,OVC,,0.00,0.0,WeatherDisplay:10.37,2013-05-24 20:44:00,
2013-05-24 22:49:00,44.2,36.4,29.92,West,269,3.5,3.5,74,0.00,OVC,,0.00,0.0,WeatherDisplay:10.37,2013-05-24 20:49:00,
2013-05-24 22:54:00,44.2,36.8,29.92,WNW,295,5.8,5.8,75,0.00,OVC,,0.00,0.0,WeatherDisplay:10.37,2013-05-24 20:54:00,
2013-05-24 22:59:00,44.1,37.0,29.92,WSW,251,4.0,4.0,76,0.00,OVC,,0.00,0.0,WeatherDisplay:10.37,2013-05-24 20:59:00,
2013-05-24 23:04:00,44.0,36.9,29.92,WSW,248,5.0,5.0,76,0.00,OVC,,0.00,0.0,WeatherDisplay:10.37,2013-05-24 21:04:00,
2013-05-24 23:09:00,43.9,36.8,29.91,WSW,258,7.0,7.0,76,0.00,OVC,,0.00,0.0,WeatherDisplay:10.37,2013-05-24 21:09:00,
2013-05-24 23:14:00,43.9,37.2,29.91,West,265,5.8,5.8,77,0.00,OVC,,0.00,0.0,WeatherDisplay:10.37,2013-05-24 21:14:00,
2013-05-24 23:19:00,43.9,37.2,29.91,WSW,238,4.0,4.0,77,0.00,OVC,,0.00,0.0,WeatherDisplay:10.37,2013-05-24 21:19:00,
2013-05-24 23:24:00,43.8,37.1,29.91,WSW,254,3.5,3.5,77,0.00,OVC,,0.00,0.0,WeatherDisplay:10.37,2013-05-24 21:24:00,
2013-05-24 23:29:00,43.8,37.1,29.91,SW,235,3.5,3.5,77,0.00,OVC,,0.00,0.0,WeatherDisplay:10.37,2013-05-24 21:29:00,
2013-05-24 23:34:00,43.8,37.1,29.91,West,259,1.2,1.2,77,0.00,OVC,,0.00,0.0,WeatherDisplay:10.37,2013-05-24 21:34:00,
2013-05-24 23:39:00,43.7,36.6,29.91,WSW,237,2.3,2.3,76,0.00,OVC,,0.00,0.0,WeatherDisplay:10.37,2013-05-24 21:39:00,
2013-05-24 23:44:00,43.7,37.0,29.91,SW,236,1.2,1.2,77,0.00,OVC,,0.00,0.0,WeatherDisplay:10.37,2013-05-24 21:44:00,
2013-05-24 23:49:00,43.6,37.2,29.90,WSW,248,1.2,1.2,78,0.00,OVC,,0.00,0.0,WeatherDisplay:10.37,2013-05-24 21:49:00,
2013-05-24 23:54:00,43.6,37.5,29.90,WSW,248,0.0,0.0,79,0.00,OVC,,0.00,0.0,WeatherDisplay:10.37,2013-05-24 21:54:00,
2013-05-24 23:59:00,43.4,37.3,29.90,WSW,248,2.0,2.0,79,0.00,OVC,,0.00,0.0,WeatherDisplay:10.37,2013-05-24 21:59:00,